Flight Track Log - Related Links

Times and Time Zones

All times are in EDT time to prevent confusion due to time zone crossing. See the N300DC flight status page for this flight to view local times or setup timezone preferences in your user account.

Time Position Orientation Groundspeed Altitude Reporting Facility
EDT Latitude Longitude Course Direction KTS MPH feet Rate Location/Type
Sun 09:39:34 AM 41.4431 -72.8858 North 106 122 5,600  Level Boston Center
Sun 09:40:05 AM 41.4575 -72.8889 351° North 104 120 5,600 -55 Level Boston Center
Sun 09:41:24 AM 41.4950 -72.8919 357° North 106 122 5,500  Descending Boston Center
Sun 09:42:18 AM 41.5219 -72.8947 356° North 104 120 5,600 50 Climbing Boston Center
Sun 09:43:25 AM 41.5533 -72.8950 360° North 102 117 5,600  Level Boston Center
Sun 09:44:01 AM 41.5700 -72.8978 353° North 103 119 5,600  Level Boston Center
Sun 09:45:00 AM 41.4126 -72.8850 North  Level Estimated
Sun 09:45:20 AM 41.6053 -72.9119 343° North 102 117 5,600  Level Boston Center
Sun 09:46:21 AM 41.6344 -72.9178 351° North 102 117 5,600  Level Boston Center
Sun 09:47:22 AM 41.6636 -72.9181 360° North 103 119 5,600  Level Boston Center
Sun 09:48:29 AM 41.6928 -72.9239 352° North 100 115 5,600  Level Boston Center
Sun 09:49:11 AM 41.7136 -72.9294 349° North 102 117 5,600  Level Boston Center
Sun 09:50:12 AM 41.7450 -72.9297 360° North 104 120 5,600  Level Boston Center
Sun 09:51:13 AM 41.7742 -72.9328 356° North 105 121 5,600  Level Boston Center
Sun 09:52:08 AM 41.7992 -72.9303 North 105 121 5,600  Level Boston Center
Sun 09:53:15 AM 41.8325 -72.9306 360° North 105 121 5,600  Level Boston Center
Sun 09:54:22 AM 41.8658 -72.9392 349° North 105 121 5,600  Level Boston Center
Sun 09:55:23 AM 41.8928 -72.9422 355° North 103 119 5,600  Level Boston Center
Sun 09:56:24 AM 41.9242 -72.9422 360° North 106 122 5,600  Level Boston Center
Sun 09:57:25 AM 41.9511 -72.9425 360° North 103 119 5,600  Level Boston Center
Sun 09:58:19 AM 41.9783 -72.9456 355° North 105 121 5,600 52 Level Boston Center
Sun 09:59:20 AM 42.0075 -72.9403 North 106 122 5,700 49 Climbing Boston Center
Sun 10:00:21 AM 42.0389 -72.9375 North 105 121 5,700  Level Boston Center
Sun 10:01:16 AM 42.0639 -72.9350 North 106 122 5,700 -47 Level Boston Center
Sun 10:02:29 AM 42.1014 -72.9269 North 108 124 5,600 -43 Descending Boston Center
Sun 10:03:36 AM 42.1325 -72.9272 360° North 106 122 5,600  Level Boston Center
Sun 10:04:37 AM 42.1639 -72.9275 360° North 105 121 5,600  Level Boston Center
Sun 10:05:25 AM 42.1867 -72.9303 355° North 104 120 5,600  Level Boston Center
Sun 10:06:26 AM 42.2158 -72.9364 351° North 103 119 5,600  Level Boston Center
Sun 10:07:27 AM 42.2472 -72.9422 352° North 107 123 5,600  Level Boston Center
Sun 10:08:28 AM 42.2764 -72.9453 356° North 107 123 5,600  Level Boston Center
Sun 10:09:29 AM 42.3056 -72.9481 356° North 106 122 5,600  Level Boston Center
Sun 10:10:30 AM 42.3347 -72.9542 351° North 106 122 5,600  Level Boston Center
Sun 10:11:31 AM 42.3658 -72.9514 North 105 121 5,600  Level Boston Center
Sun 10:12:38 AM 42.3972 -72.9489 North 106 122 5,600  Level Boston Center
Sun 10:13:48 AM 42.4328 -72.9408 North 110 127 5,600  Level Boston Center
Sun 10:14:48 AM 42.4639 -72.9439 356° North 105 121 5,600  Level Boston Center
Sun 10:15:48 AM 42.4931 -72.9383 North 105 121 5,600  Level Boston Center
Sun 10:16:48 AM 42.5222 -72.9331 North 105 121 5,600  Level Boston Center
Sun 10:17:48 AM 42.5536 -72.9278 North 105 121 5,600  Level Boston Center
Sun 10:18:48 AM 42.5828 -72.9167 16° North 105 121 5,600  Level Boston Center
Sun 10:19:48 AM 42.6119 -72.9111 North 105 121 5,600  Level Boston Center
Sun 10:20:48 AM 42.6392 -72.8972 21° North 105 121 5,600  Level Boston Center
Sun 10:21:48 AM 42.6683 -72.8919 North 105 121 5,600  Level Boston Center
Sun 10:22:48 AM 42.6975 -72.8919 360° North 105 121 5,600 -50 Level Boston Center
Sun 10:23:48 AM 42.7289 -72.8894 North 105 121 5,500 -50 Descending Boston Center
Sun 10:24:48 AM 42.7581 -72.8897 360° North 105 121 5,500  Level Boston Center

Login

Don't have an account? Register now (free) for customized features, flight alerts, and more!